Time;durP1;ratioP1;P1;durP2;ratioP2;P2;SDS_P1;SDS_P2;PMS_P1;PMS_P2;Temp;Humidity;BMP_temperature;BMP_pressure;BME280_temperature;BME280_humidity;BME280_pressure;Samples;Min_cycle;Max_cycle;Signal;HPM_P1;HPM_P2
2022/03/16 00:00:28;;;;;;;51.15;22.05;;;;;;;5.71;95.66;98082.47;5021867;28;20041;-66
2022/03/16 00:02:54;;;;;;;53.78;23.02;;;;;;;5.63;95.70;98088.84;5025738;28;20107;-67
2022/03/16 00:05:21;;;;;;;48.15;22.67;;;;;;;5.66;96.57;98093.84;5010141;28;20069;-67
2022/03/16 00:07:48;;;;;;;48.80;22.60;;;;;;;5.69;96.87;98097.97;5010196;28;20048;-66
2022/03/16 00:10:14;;;;;;;38.95;20.50;;;;;;;5.79;97.65;98095.72;5024419;28;20033;-66
2022/03/16 00:12:42;;;;;;;41.97;19.10;;;;;;;5.70;95.89;98105.84;5024725;28;20045;-67
2022/03/16 00:15:10;;;;;;;35.70;18.33;;;;;;;5.76;96.12;98106.91;5025397;28;20042;-68
2022/03/16 00:17:36;;;;;;;35.80;18.08;;;;;;;5.69;96.16;98109.56;5024839;28;20033;-66
2022/03/16 00:20:04;;;;;;;42.65;20.20;;;;;;;5.83;97.31;98107.72;5024918;28;20840;-67
2022/03/16 00:22:30;;;;;;;34.33;18.73;;;;;;;5.83;96.48;98106.91;5024865;28;20568;-66
2022/03/16 00:24:57;;;;;;;39.47;18.92;;;;;;;5.82;96.36;98100.69;5024029;28;20758;-65
2022/03/16 00:27:23;;;;;;;38.35;19.08;;;;;;;5.70;95.94;98103.16;5025058;28;20055;-67
2022/03/16 00:29:50;;;;;;;37.28;19.27;;;;;;;5.71;95.66;98098.59;5024272;28;20044;-65
2022/03/16 00:32:16;;;;;;;37.30;19.80;;;;;;;5.75;95.23;98105.22;5025392;28;20132;-65
2022/03/16 00:34:43;;;;;;;35.20;18.17;;;;;;;5.76;95.17;98106.06;5026769;28;20104;-66
2022/03/16 00:37:10;;;;;;;39.25;19.98;;;;;;;5.80;95.35;98096.56;5023935;28;20382;-67
2022/03/16 00:39:37;;;;;;;37.55;19.05;;;;;;;5.82;95.30;98099.88;5027022;28;20044;-66
2022/03/16 00:42:04;;;;;;;34.05;18.88;;;;;;;5.81;94.54;98100.91;5026346;28;20524;-67
2022/03/16 00:44:34;;;;;;;40.10;20.05;;;;;;;5.80;94.60;98093.88;5024575;28;20048;-66
2022/03/16 00:47:05;;;;;;;37.15;19.45;;;;;;;5.81;93.98;98092.84;5025907;28;20072;-67
2022/03/16 00:49:32;;;;;;;37.10;19.23;;;;;;;5.88;93.72;98092.84;5027602;28;20849;-67
2022/03/16 00:52:00;;;;;;;40.08;19.38;;;;;;;5.85;93.38;98092.22;5038717;28;20091;-66
2022/03/16 00:54:26;;;;;;;41.75;21.05;;;;;;;5.85;93.43;98091.41;5047098;28;20053;-65
2022/03/16 00:56:54;;;;;;;38.70;19.85;;;;;;;5.94;93.85;98089.34;5039743;28;20045;-65
2022/03/16 00:59:21;;;;;;;37.35;19.60;;;;;;;5.95;92.84;98086.47;5033515;28;20037;-64
2022/03/16 01:01:47;;;;;;;33.83;18.88;;;;;;;5.89;92.56;98086.47;5026823;28;20049;-65
2022/03/16 01:04:14;;;;;;;37.35;19.05;;;;;;;5.68;94.15;98090.94;5025390;28;20117;-66
2022/03/16 01:06:41;;;;;;;36.95;18.80;;;;;;;5.70;94.31;98087.03;5022694;28;20049;-66
2022/03/16 01:09:07;;;;;;;36.97;19.50;;;;;;;5.71;94.69;98094.06;5023893;28;20044;-65
2022/03/16 01:11:34;;;;;;;37.78;20.10;;;;;;;5.67;94.69;98091.97;5025700;28;20468;-65
2022/03/16 01:14:01;;;;;;;35.40;19.17;;;;;;;5.64;95.08;98090.50;5023656;28;20041;-67
2022/03/16 01:16:27;;;;;;;36.08;18.90;;;;;;;5.59;94.96;98084.91;5022056;28;20489;-64
2022/03/16 01:18:54;;;;;;;41.05;20.02;;;;;;;5.50;96.33;98086.97;5024928;28;20095;-64
2022/03/16 01:21:21;;;;;;;47.83;19.58;;;;;;;5.34;96.59;98083.59;5026012;28;20116;-66
2022/03/16 01:23:47;;;;;;;48.17;20.33;;;;;;;5.40;97.84;98083.81;5024840;28;20052;-65
2022/03/16 01:26:16;;;;;;;44.88;21.52;;;;;;;5.36;97.16;98078.03;5024200;28;20041;-66
2022/03/16 01:28:43;;;;;;;51.35;23.70;;;;;;;5.36;97.41;98077.19;5023896;28;20041;-67
2022/03/16 01:31:09;;;;;;;46.35;21.02;;;;;;;5.34;97.28;98077.38;5025651;28;20041;-66
2022/03/16 01:33:36;;;;;;;49.75;21.65;;;;;;;5.31;98.29;98075.94;5023769;28;20049;-65
2022/03/16 01:36:03;;;;;;;57.90;23.45;;;;;;;5.24;97.80;98082.31;5023611;28;20558;-65
2022/03/16 01:38:29;;;;;;;49.50;22.48;;;;;;;5.26;98.44;98080.25;5025727;28;20033;-67
2022/03/16 01:40:56;;;;;;;56.35;24.33;;;;;;;5.28;98.07;98081.72;5025667;28;20663;-66
2022/03/16 01:43:24;;;;;;;60.72;25.48;;;;;;;5.23;98.07;98083.34;5021877;28;20034;-65
2022/03/16 01:45:51;;;;;;;56.63;24.08;;;;;;;5.21;98.04;98078.19;5019090;28;20176;-65
2022/03/16 01:48:19;;;;;;;60.47;24.67;;;;;;;5.39;99.06;98083.00;5025046;28;20033;-65
2022/03/16 01:50:47;;;;;;;61.65;24.33;;;;;;;5.43;98.35;98080.75;5025207;28;20045;-65
2022/03/16 01:53:14;;;;;;;59.15;24.05;;;;;;;5.39;98.25;98074.13;5024198;28;20041;-66
2022/03/16 01:55:41;;;;;;;53.88;23.40;;;;;;;5.32;97.77;98080.31;5026021;28;21732;-66
2022/03/16 01:58:10;;;;;;;55.20;23.95;;;;;;;5.25;97.85;98090.19;5037675;28;20059;-64
2022/03/16 02:00:38;;;;;;;53.90;22.25;;;;;;;5.23;97.89;98099.47;5024092;28;20053;-67
2022/03/16 02:03:07;;;;;;;55.28;23.95;;;;;;;5.32;98.47;98092.88;5024121;28;20460;-67
2022/03/16 02:05:35;;;;;;;58.08;24.65;;;;;;;5.38;98.39;98089.38;5024070;28;20045;-64
2022/03/16 02:08:04;;;;;;;55.17;24.05;;;;;;;5.46;98.68;98086.53;5024329;28;20042;-68
2022/03/16 02:10:32;;;;;;;60.13;24.63;;;;;;;5.64;99.32;98089.69;5025651;28;20059;-66
2022/03/16 02:12:58;;;;;;;55.20;24.05;;;;;;;5.61;98.38;98088.25;5023447;28;20053;-67
2022/03/16 02:15:25;;;;;;;56.70;24.25;;;;;;;5.60;98.12;98084.72;5024333;28;20045;-65
2022/03/16 02:17:55;;;;;;;59.20;25.35;;;;;;;5.57;97.07;98085.13;5024558;28;20041;-67
2022/03/16 02:20:22;;;;;;;50.80;23.92;;;;;;;5.57;96.91;98081.63;5029681;28;20495;-67
2022/03/16 02:22:55;;;;;;;57.03;25.05;;;;;;;5.54;96.34;98076.66;5025011;28;20405;-67
2022/03/16 02:25:24;;;;;;;52.75;24.40;;;;;;;5.56;96.27;98077.25;5025560;28;20061;-65
2022/03/16 02:27:54;;;;;;;57.80;25.75;;;;;;;5.51;96.32;98079.72;5024761;28;20041;-67
2022/03/16 02:30:25;;;;;;;60.85;26.17;;;;;;;5.56;96.42;98075.41;5019486;28;20096;-65
2022/03/16 02:32:52;;;;;;;61.00;26.17;;;;;;;5.53;96.17;98075.81;5025385;28;20046;-67
2022/03/16 02:35:19;;;;;;;54.75;23.98;;;;;;;5.62;96.23;98078.31;5024164;28;20045;-65
2022/03/16 02:37:46;;;;;;;52.72;23.88;;;;;;;5.67;96.19;98081.22;5026027;28;20523;-67
2022/03/16 02:40:18;;;;;;;54.78;25.75;;;;;;;5.66;95.79;98083.09;5027865;28;20123;-66
2022/03/16 02:42:44;;;;;;;52.10;24.30;;;;;;;5.61;95.16;98077.50;5029034;28;20424;-66
2022/03/16 02:45:11;;;;;;;50.05;24.30;;;;;;;5.59;95.14;98075.00;5027223;28;20091;-65
2022/03/16 02:47:40;;;;;;;52.13;23.90;;;;;;;5.65;96.03;98077.91;5027471;28;20575;-66
2022/03/16 02:50:07;;;;;;;52.00;24.33;;;;;;;5.67;96.03;98083.91;5018296;28;20554;-68
2022/03/16 02:52:34;;;;;;;60.35;26.27;;;;;;;5.72;96.73;98084.16;5019953;28;20072;-66
2022/03/16 02:55:01;;;;;;;57.95;25.52;;;;;;;5.71;96.18;98086.00;5030440;28;20046;-67
2022/03/16 02:57:27;;;;;;;54.45;25.80;;;;;;;5.70;96.12;98087.03;5025084;28;20045;-68
2022/03/16 02:59:55;;;;;;;52.10;25.42;;;;;;;5.78;95.58;98093.25;5026773;28;20041;-65
2022/03/16 03:02:22;;;;;;;46.38;22.88;;;;;;;5.82;95.52;98089.94;5015309;28;20068;-67
2022/03/16 03:04:49;;;;;;;52.85;23.48;;;;;;;5.70;94.96;98086.19;5029593;28;20045;-68
2022/03/16 03:07:15;;;;;;;52.75;24.85;;;;;;;5.69;95.39;98095.28;5028778;28;20455;-66
2022/03/16 03:09:42;;;;;;;52.20;25.65;;;;;;;5.69;95.76;98098.81;5036506;28;20633;-65
2022/03/16 03:12:09;;;;;;;52.95;25.70;;;;;;;5.71;95.67;98094.06;5027783;28;20091;-65
2022/03/16 03:14:35;;;;;;;49.65;23.58;;;;;;;5.57;95.33;98098.56;5028821;28;20041;-65
2022/03/16 03:17:02;;;;;;;58.38;25.70;;;;;;;5.65;97.33;98099.41;5027012;28;20045;-64
2022/03/16 03:19:29;;;;;;;65.15;27.98;;;;;;;5.43;96.06;98096.84;5027833;28;20049;-67
2022/03/16 03:21:56;;;;;;;62.80;27.00;;;;;;;5.45;97.28;98097.47;5028288;28;20049;-65
2022/03/16 03:24:22;;;;;;;68.65;28.20;;;;;;;5.44;97.26;98093.97;5027334;28;20041;-67
2022/03/16 03:26:49;;;;;;;80.10;29.23;;;;;;;5.65;99.40;98097.56;5028239;28;20084;-67
2022/03/16 03:29:17;;;;;;;82.20;31.27;;;;;;;5.57;97.39;98095.88;5027499;28;20045;-64
2022/03/16 03:31:43;;;;;;;88.47;31.50;;;;;;;5.46;97.63;98102.66;5027735;28;20047;-65
2022/03/16 03:34:10;;;;;;;88.07;30.17;;;;;;;5.52;98.23;98106.41;5027627;28;20045;-65
2022/03/16 03:36:38;;;;;;;82.53;31.00;;;;;;;5.60;97.67;98102.69;5021221;28;20095;-67
2022/03/16 03:39:05;;;;;;;76.75;30.77;;;;;;;5.58;97.12;98102.06;5024522;28;20045;-66
2022/03/16 03:41:31;;;;;;;72.10;28.13;;;;;;;5.63;97.56;98101.50;5025728;28;20033;-66
2022/03/16 03:43:58;;;;;;;77.32;28.73;;;;;;;5.69;97.17;98100.66;5027627;28;20040;-65
2022/03/16 03:46:25;;;;;;;75.50;29.92;;;;;;;5.65;97.10;98105.63;5026035;28;20049;-65
2022/03/16 03:48:51;;;;;;;71.90;30.27;;;;;;;5.73;97.88;98108.13;5026704;28;20033;-66
2022/03/16 03:51:18;;;;;;;79.50;32.53;;;;;;;5.70;96.99;98108.53;5026350;28;20068;-67
2022/03/16 03:53:44;;;;;;;73.13;30.23;;;;;;;5.65;96.82;98113.69;5026618;28;20058;-65
2022/03/16 03:56:11;;;;;;;75.68;30.33;;;;;;;5.65;96.89;98107.47;5026677;28;20053;-65
2022/03/16 03:58:38;;;;;;;75.05;30.15;;;;;;;5.69;97.05;98101.50;5028207;28;20106;-66
2022/03/16 04:01:06;;;;;;;83.18;32.75;;;;;;;5.70;96.90;98108.53;5029090;28;20493;-65
2022/03/16 04:03:32;;;;;;;77.80;31.98;;;;;;;5.78;97.14;98107.50;5027069;28;20100;-65
2022/03/16 04:06:00;;;;;;;75.53;32.13;;;;;;;5.77;96.67;98103.16;5028702;28;20652;-66
2022/03/16 04:08:27;;;;;;;70.03;28.58;;;;;;;5.80;96.26;98108.16;5027429;28;20375;-66
2022/03/16 04:10:54;;;;;;;71.13;26.67;;;;;;;5.69;95.90;98104.19;5026806;28;20528;-68
2022/03/16 04:13:20;;;;;;;68.28;27.52;;;;;;;5.70;96.48;98111.22;5027760;28;20076;-65
2022/03/16 04:15:47;;;;;;;71.18;29.50;;;;;;;5.77;96.47;98107.69;5026282;28;20143;-65
2022/03/16 04:18:14;;;;;;;67.78;28.73;;;;;;;5.75;96.51;98107.91;5026930;28;20036;-66
2022/03/16 04:20:40;;;;;;;73.07;29.90;;;;;;;5.62;96.60;98116.75;5026130;28;20038;-65
2022/03/16 04:23:07;;;;;;;64.75;28.20;;;;;;;5.64;96.36;98108.50;5026692;28;20044;-66
2022/03/16 04:25:33;;;;;;;75.45;30.63;;;;;;;5.53;96.75;98113.41;5026663;28;20060;-65
2022/03/16 04:28:00;;;;;;;84.07;31.77;;;;;;;5.45;97.42;98116.28;5027243;28;20038;-66
2022/03/16 04:30:26;;;;;;;81.13;30.73;;;;;;;5.41;97.90;98115.84;5024426;28;20041;-67
2022/03/16 04:32:53;;;;;;;84.10;31.55;;;;;;;5.43;98.21;98112.97;5026326;28;20540;-66
2022/03/16 04:35:20;;;;;;;83.55;31.83;;;;;;;5.39;98.00;98109.03;5026210;28;20099;-66
2022/03/16 04:37:47;;;;;;;96.95;33.60;;;;;;;5.33;98.29;98114.19;5025825;28;20133;-68
2022/03/16 04:40:14;;;;;;;102.32;34.33;;;;;;;5.37;98.58;98114.59;5026131;28;20682;-65
2022/03/16 04:42:41;;;;;;;101.72;34.42;;;;;;;5.44;98.63;98111.94;5026252;28;20046;-66
2022/03/16 04:45:08;;;;;;;93.43;35.00;;;;;;;5.45;98.27;98116.28;5026331;28;20053;-66
2022/03/16 04:47:35;;;;;;;112.20;36.80;;;;;;;5.30;98.44;98114.56;5025091;28;20041;-67
2022/03/16 04:50:02;;;;;;;104.43;35.92;;;;;;;5.31;98.65;98116.22;5025553;28;20092;-66
2022/03/16 04:52:28;;;;;;;119.68;36.78;;;;;;;5.26;99.02;98115.16;5026684;28;20065;-66
2022/03/16 04:54:55;;;;;;;138.50;42.20;;;;;;;5.18;99.43;98108.09;5026563;28;20065;-67
2022/03/16 04:57:21;;;;;;;119.78;38.83;;;;;;;5.20;99.60;98116.81;5028579;28;20048;-66
2022/03/16 04:59:48;;;;;;;125.68;39.17;;;;;;;5.26;99.61;98121.38;5027036;28;20052;-66
2022/03/16 05:02:14;;;;;;;110.65;37.20;;;;;;;5.29;99.79;98115.59;5025531;28;20038;-67
2022/03/16 05:04:41;;;;;;;117.10;36.25;;;;;;;5.40;99.66;98122.25;5026416;28;20053;-67
2022/03/16 05:07:08;;;;;;;118.45;38.50;;;;;;;5.37;99.36;98111.06;5025323;28;20052;-67
2022/03/16 05:09:34;;;;;;;127.65;40.15;;;;;;;5.36;99.40;98114.78;5023181;28;20038;-67
2022/03/16 05:12:01;;;;;;;134.73;39.78;;;;;;;5.21;99.08;98115.75;5025525;28;20042;-68
2022/03/16 05:14:27;;;;;;;121.57;41.70;;;;;;;5.20;99.51;98109.56;5019931;28;20663;-67
2022/03/16 05:16:54;;;;;;;114.93;37.58;;;;;;;5.34;99.42;98113.13;5025312;28;20052;-67
2022/03/16 05:19:23;;;;;;;130.23;38.40;;;;;;;5.26;99.40;98117.84;5024008;28;20175;-66
2022/03/16 05:21:49;;;;;;;129.63;35.92;;;;;;;5.20;99.62;98114.13;5024581;28;20063;-66
2022/03/16 05:24:18;;;;;;;121.80;37.13;;;;;;;5.20;99.74;98119.50;5023535;28;20042;-67
2022/03/16 05:26:45;;;;;;;123.07;37.17;;;;;;;5.25;99.60;98124.25;5025524;28;20049;-66
2022/03/16 05:29:11;;;;;;;134.48;40.42;;;;;;;5.17;99.97;98130.63;5025303;28;20041;-66
2022/03/16 05:31:38;;;;;;;127.35;36.95;;;;;;;5.20;99.63;98131.03;5024603;28;20037;-66
2022/03/16 05:34:04;;;;;;;170.60;41.33;;;;;;;5.16;99.78;98128.97;5025494;28;20041;-68
2022/03/16 05:36:31;;;;;;;154.55;41.03;;;;;;;5.12;100.00;98136.56;5021907;28;20047;-64
2022/03/16 05:39:01;;;;;;;133.75;39.45;;;;;;;5.14;100.00;98139.06;5024648;28;20652;-65
2022/03/16 05:41:28;;;;;;;160.25;43.65;;;;;;;5.13;100.00;98137.41;5024626;28;20049;-66
2022/03/16 05:43:54;;;;;;;144.77;43.90;;;;;;;5.11;100.00;98144.81;5024209;28;20172;-66
2022/03/16 05:46:21;;;;;;;117.97;40.45;;;;;;;5.19;100.00;98144.66;5025275;28;20049;-66
2022/03/16 05:48:48;;;;;;;119.55;39.65;;;;;;;5.17;100.00;98144.84;5019357;28;20519;-67
2022/03/16 05:51:14;;;;;;;146.52;40.38;;;;;;;5.18;100.00;98148.38;5023884;28;20056;-66
2022/03/16 05:53:41;;;;;;;188.20;41.20;;;;;;;5.17;100.00;98147.53;5024421;28;20054;-67
2022/03/16 05:56:07;;;;;;;119.80;39.92;;;;;;;5.29;100.00;98147.81;5024569;28;20046;-67
2022/03/16 05:58:34;;;;;;;133.40;37.20;;;;;;;5.27;100.00;98149.88;5026707;28;20038;-68
2022/03/16 06:01:01;;;;;;;129.02;36.78;;;;;;;5.24;100.00;98150.28;5029009;28;20038;-67
2022/03/16 06:03:27;;;;;;;159.68;37.65;;;;;;;5.26;100.00;98153.59;5025142;28;20053;-68
2022/03/16 06:05:54;;;;;;;159.90;40.05;;;;;;;5.26;100.00;98155.44;5024755;28;20117;-68
2022/03/16 06:08:21;;;;;;;122.40;39.00;;;;;;;5.28;100.00;98151.53;5025045;28;20048;-66
2022/03/16 06:10:47;;;;;;;157.07;39.92;;;;;;;5.26;100.00;98156.28;5015246;28;20041;-67
2022/03/16 06:13:14;;;;;;;126.18;38.80;;;;;;;5.39;100.00;98157.38;5021927;28;20045;-68
2022/03/16 06:15:42;;;;;;;118.47;38.30;;;;;;;5.36;100.00;98152.38;5021635;28;20428;-67
2022/03/16 06:18:10;;;;;;;124.25;37.95;;;;;;;5.36;100.00;98152.38;5022081;28;20045;-66
2022/03/16 06:20:37;;;;;;;117.38;37.13;;;;;;;5.40;100.00;98154.50;5022678;28;20056;-66
2022/03/16 06:23:06;;;;;;;108.22;36.85;;;;;;;5.49;100.00;98157.81;5022600;28;20254;-66
2022/03/16 06:25:38;;;;;;;113.70;37.20;;;;;;;5.46;100.00;98164.44;5022618;28;20049;-66
2022/03/16 06:28:05;;;;;;;176.68;38.53;;;;;;;5.46;99.98;98169.00;5022610;28;20053;-67
2022/03/16 06:30:31;;;;;;;88.05;34.47;;;;;;;5.51;99.92;98169.22;5022103;28;20041;-65
2022/03/16 06:32:58;;;;;;;158.10;37.00;;;;;;;5.54;100.00;98166.13;5022537;28;20046;-67
2022/03/16 06:35:25;;;;;;;91.95;33.58;;;;;;;5.55;99.85;98165.09;5020424;28;20049;-68
2022/03/16 06:37:51;;;;;;;112.45;36.35;;;;;;;5.58;100.00;98167.41;5019971;28;20053;-67
2022/03/16 06:40:18;;;;;;;99.50;36.42;;;;;;;5.57;99.91;98171.09;5018888;28;20788;-67
2022/03/16 06:42:55;;;;;;;165.38;35.85;;;;;;;5.55;100.00;98173.16;5021960;28;20065;-67
2022/03/16 06:45:23;;;;;;;121.90;35.15;;;;;;;5.60;99.60;98173.38;5022751;28;20535;-67
2022/03/16 06:47:53;;;;;;;155.00;38.97;;;;;;;5.50;99.55;98169.41;5021833;28;20045;-66
2022/03/16 06:50:20;;;;;;;119.22;37.05;;;;;;;5.54;99.69;98179.56;5021385;28;20467;-68
2022/03/16 06:52:47;;;;;;;105.35;36.33;;;;;;;5.58;99.58;98175.44;5022418;28;20484;-67
2022/03/16 06:55:14;;;;;;;154.70;39.67;;;;;;;5.50;99.71;98178.31;5032687;28;20128;-66
2022/03/16 06:57:40;;;;;;;160.05;41.03;;;;;;;5.55;100.00;98183.06;5024331;28;20072;-66
2022/03/16 07:00:08;;;;;;;98.43;37.92;;;;;;;5.60;99.67;98178.75;5025656;28;20520;-66
2022/03/16 07:03:07;;;;;;;140.80;36.95;;;;;;;5.55;99.61;98180.38;5022052;28;20424;-66
2022/03/16 07:05:37;;;;;;;120.97;37.03;;;;;;;5.59;100.00;98181.63;5003372;28;20053;-67
2022/03/16 07:08:07;;;;;;;154.02;39.80;;;;;;;5.60;99.86;98183.28;5021895;28;20068;-66
2022/03/16 07:10:36;;;;;;;130.82;37.13;;;;;;;5.66;99.96;98187.88;5022760;28;20135;-66
2022/03/16 07:13:09;;;;;;;108.30;37.28;;;;;;;5.63;99.78;98195.53;5023125;28;20123;-67
2022/03/16 07:15:41;;;;;;;95.30;35.83;;;;;;;5.64;99.73;98189.91;5019829;28;20053;-67
2022/03/16 07:18:07;;;;;;;96.97;36.55;;;;;;;5.64;99.25;98202.53;5022486;28;20045;-66
2022/03/16 07:20:34;;;;;;;93.60;35.20;;;;;;;5.56;98.83;98201.66;5032962;28;20049;-68
2022/03/16 07:23:11;;;;;;;93.50;36.42;;;;;;;5.53;99.33;98193.19;5026808;28;20045;-66
2022/03/16 07:25:40;;;;;;;105.05;37.50;;;;;;;5.48;99.26;98196.47;5038321;28;20057;-67
2022/03/16 07:28:07;;;;;;;98.43;35.72;;;;;;;5.46;99.32;98201.22;5023755;28;20103;-67
2022/03/16 07:30:35;;;;;;;100.90;39.15;;;;;;;5.45;99.59;98195.00;5025977;28;20052;-68
2022/03/16 07:33:03;;;;;;;104.75;37.22;;;;;;;5.57;99.64;98197.13;5022766;28;20137;-68
2022/03/16 07:35:29;;;;;;;91.35;37.58;;;;;;;5.62;99.05;98188.47;5020195;28;20050;-67
2022/03/16 07:37:57;;;;;;;86.60;35.47;;;;;;;5.65;98.95;98196.97;5019841;28;20041;-67
2022/03/16 07:40:24;;;;;;;87.18;34.72;;;;;;;5.60;98.64;98212.84;5023769;28;20041;-68
2022/03/16 07:42:52;;;;;;;89.90;34.75;;;;;;;5.55;98.96;98212.63;5023761;28;20042;-65
2022/03/16 07:45:19;;;;;;;96.05;36.25;;;;;;;5.54;98.81;98210.97;5024262;28;20041;-68
2022/03/16 07:47:46;;;;;;;98.68;35.95;;;;;;;5.55;99.05;98216.13;5024044;28;20379;-65
2022/03/16 07:50:13;;;;;;;102.65;36.28;;;;;;;5.52;99.14;98215.69;5029463;28;20052;-68
2022/03/16 07:52:40;;;;;;;98.93;35.90;;;;;;;5.64;99.56;98211.41;5031654;28;20061;-65
2022/03/16 07:55:07;;;;;;;99.85;33.78;;;;;;;5.72;99.43;98213.94;5025507;28;20057;-66
2022/03/16 07:57:35;;;;;;;103.68;37.53;;;;;;;5.62;98.78;98213.50;5026923;28;20053;-64
2022/03/16 08:00:07;;;;;;;92.55;36.03;;;;;;;5.60;98.87;98216.38;5028444;28;20037;-63
2022/03/16 08:02:33;;;;;;;94.43;36.80;;;;;;;5.59;98.88;98219.25;5028176;28;20532;-64
2022/03/16 08:05:01;;;;;;;94.97;34.33;;;;;;;5.63;99.40;98220.50;5025787;28;20076;-65
2022/03/16 08:07:28;;;;;;;98.80;36.83;;;;;;;5.68;98.85;98214.56;5020517;28;20040;-69
2022/03/16 08:09:56;;;;;;;90.05;34.88;;;;;;;5.68;98.63;98214.56;5048116;28;20051;-67
2022/03/16 08:12:23;;;;;;;96.05;34.88;;;;;;;5.77;98.70;98220.56;5026509;28;20048;-68
2022/03/16 08:14:50;;;;;;;89.05;37.75;;;;;;;5.70;97.99;98224.06;5028541;28;20136;-65
2022/03/16 08:17:17;;;;;;;90.22;36.35;;;;;;;5.57;98.21;98216.75;5026638;28;20053;-68
2022/03/16 08:19:45;;;;;;;88.32;34.75;;;;;;;5.59;98.37;98214.72;5025235;28;20048;-65
2022/03/16 08:22:11;;;;;;;88.32;33.97;;;;;;;5.57;98.34;98214.06;5023823;28;20044;-68
2022/03/16 08:24:38;;;;;;;85.57;34.00;;;;;;;5.61;98.13;98206.47;5024041;28;20054;-66
2022/03/16 08:27:20;;;;;;;81.30;31.80;;;;;;;5.67;98.09;98205.66;5025194;28;20124;-65
2022/03/16 08:29:47;;;;;;;89.75;35.38;;;;;;;5.65;97.91;98213.09;5025144;28;20099;-65
2022/03/16 08:32:13;;;;;;;90.38;35.08;;;;;;;5.68;97.60;98217.25;5025243;28;20420;-67
2022/03/16 08:34:40;;;;;;;85.57;33.85;;;;;;;5.72;98.05;98210.44;5026681;28;20057;-66
2022/03/16 08:37:07;;;;;;;84.50;33.65;;;;;;;5.76;97.77;98218.91;5026099;28;20674;-65
2022/03/16 08:39:38;;;;;;;79.70;32.10;;;;;;;5.83;97.42;98206.34;5026287;28;20123;-65
2022/03/16 08:42:06;;;;;;;87.78;34.13;;;;;;;5.81;96.97;98205.72;5025128;28;20046;-66
2022/03/16 08:44:33;;;;;;;80.95;35.30;;;;;;;5.81;96.34;98206.53;5026132;28;20053;-66
2022/03/16 08:47:01;;;;;;;74.32;31.48;;;;;;;5.84;96.22;98208.84;5023643;28;20069;-66
2022/03/16 08:49:29;;;;;;;71.65;30.80;;;;;;;5.89;96.10;98204.72;5023767;28;20040;-65
2022/03/16 08:51:58;;;;;;;71.28;28.55;;;;;;;5.83;95.51;98209.84;5037490;28;20045;-65
2022/03/16 08:54:25;;;;;;;74.38;30.35;;;;;;;6.13;95.71;98205.22;5015181;28;20041;-59
2022/03/16 08:56:54;;;;;;;64.10;29.25;;;;;;;6.23;93.91;98200.31;5024122;28;20050;-59
2022/03/16 08:59:20;;;;;;;60.83;26.70;;;;;;;6.29;93.71;98204.88;5040019;28;20044;-60
2022/03/16 09:01:47;;;;;;;58.78;27.20;;;;;;;6.35;93.20;98205.91;5028809;28;20135;-60
2022/03/16 09:04:14;;;;;;;56.40;26.45;;;;;;;6.48;92.05;98211.31;5024226;28;20049;-60
2022/03/16 09:06:41;;;;;;;52.58;26.60;;;;;;;6.63;91.43;98202.22;5024092;28;20045;-60
2022/03/16 09:09:08;;;;;;;49.70;23.90;;;;;;;6.63;90.88;98204.91;5023075;28;20497;-60
2022/03/16 09:11:35;;;;;;;50.92;23.75;;;;;;;6.63;90.32;98197.66;5029231;28;20046;-61
2022/03/16 09:14:02;;;;;;;48.88;23.27;;;;;;;6.65;91.31;98202.84;5032126;28;20148;-60
2022/03/16 09:16:29;;;;;;;45.28;22.52;;;;;;;6.69;89.96;98203.25;5039510;28;20048;-59
2022/03/16 09:18:56;;;;;;;51.95;23.58;;;;;;;6.70;91.52;98197.66;5030753;28;20087;-61
2022/03/16 09:21:25;;;;;;;49.63;25.02;;;;;;;6.89;89.74;98203.25;5023880;28;20050;-60
2022/03/16 09:23:53;;;;;;;45.38;22.70;;;;;;;7.14;87.45;98187.31;5024051;28;20041;-67
2022/03/16 09:26:23;;;;;;;40.47;21.33;;;;;;;6.85;88.61;98191.25;5033818;28;20378;-64
2022/03/16 09:28:50;;;;;;;42.38;22.52;;;;;;;6.58;90.16;98202.00;5024113;28;20056;-66
2022/03/16 09:31:17;;;;;;;41.30;21.35;;;;;;;6.56;90.28;98204.09;5023386;28;20099;-65
2022/03/16 09:33:44;;;;;;;51.25;23.35;;;;;;;6.63;90.34;98208.44;5023725;28;20459;-65
2022/03/16 09:36:11;;;;;;;44.40;21.83;;;;;;;6.55;90.27;98199.72;5022933;28;20056;-67
2022/03/16 09:38:38;;;;;;;40.63;21.40;;;;;;;6.78;90.64;98206.59;5022882;28;20045;-67
2022/03/16 09:41:06;;;;;;;40.55;22.83;;;;;;;6.88;89.97;98204.31;5022981;28;20685;-66
2022/03/16 09:43:35;;;;;;;49.45;22.65;;;;;;;6.99;90.08;98211.75;5035457;28;20049;-66
2022/03/16 09:46:04;;;;;;;44.67;23.42;;;;;;;7.09;89.95;98199.75;5023449;28;20049;-67
2022/03/16 09:48:32;;;;;;;42.95;22.63;;;;;;;7.01;89.77;98198.09;5012724;28;20321;-67
2022/03/16 09:50:58;;;;;;;45.67;25.67;;;;;;;6.97;89.18;98197.66;5021646;28;20064;-66
2022/03/16 09:53:29;;;;;;;48.55;23.77;;;;;;;7.12;88.83;98199.31;5017533;28;20064;-66
2022/03/16 09:55:56;;;;;;;40.40;21.15;;;;;;;7.26;89.22;98192.88;5036480;28;20496;-65
2022/03/16 09:58:22;;;;;;;47.55;22.58;;;;;;;7.57;87.40;98189.69;5031891;28;20048;-65
2022/03/16 10:00:50;;;;;;;42.35;21.33;;;;;;;7.73;86.50;98185.69;5036154;28;20037;-66
2022/03/16 10:03:17;;;;;;;39.65;21.88;;;;;;;7.55;86.60;98179.94;5023238;28;20081;-66
2022/03/16 10:05:46;;;;;;;39.63;21.75;;;;;;;7.47;87.44;98173.94;5036372;28;20053;-67
2022/03/16 10:08:14;;;;;;;39.83;21.65;;;;;;;7.46;87.10;98185.78;5023263;28;20132;-66
2022/03/16 10:13:26;;;;;;;40.58;21.13;;;;;;;7.76;85.63;98177.19;5022933;28;20045;-66
2022/03/16 10:16:07;;;;;;;42.33;21.60;;;;;;;7.87;85.15;98165.72;5023869;28;20045;-68
2022/03/16 10:18:36;;;;;;;39.90;21.23;;;;;;;7.66;86.14;98174.94;5023199;28;20111;-65
2022/03/16 10:21:08;;;;;;;41.47;21.58;;;;;;;7.63;86.25;98176.19;5023219;28;20049;-67
2022/03/16 10:23:35;;;;;;;43.53;24.33;;;;;;;7.46;87.25;98175.84;5036526;28;20052;-64
2022/03/16 10:26:03;;;;;;;44.28;23.38;;;;;;;7.53;87.39;98171.25;5022301;28;20041;-66
2022/03/16 10:28:32;;;;;;;51.83;24.50;;;;;;;7.69;87.02;98169.13;5026860;28;20103;-65
2022/03/16 10:31:03;;;;;;;45.15;23.73;;;;;;;8.13;86.37;98169.34;5023911;28;20041;-67
2022/03/16 10:33:44;;;;;;;42.00;22.52;;;;;;;8.37;84.86;98169.59;5023318;28;20045;-66
2022/03/16 10:36:13;;;;;;;39.63;20.80;;;;;;;8.41;83.36;98162.72;5019015;28;20749;-66
2022/03/16 10:38:43;;;;;;;38.97;21.10;;;;;;;8.53;84.50;98167.44;5023124;28;20045;-67
2022/03/16 10:47:10;;;;;;;55.97;24.17;;;;;;;8.87;84.05;98159.06;5022604;28;20279;-67
2022/03/16 10:49:38;;;;;;;44.65;21.35;;;;;;;9.12;82.24;98156.34;5022909;28;20042;-66
2022/03/16 10:52:10;;;;;;;37.03;20.55;;;;;;;9.26;81.93;98157.06;5022777;28;20038;-65
2022/03/16 10:54:38;;;;;;;40.58;21.75;;;;;;;9.04;82.79;98157.47;5020106;28;20052;-66
2022/03/16 10:57:10;;;;;;;36.80;20.85;;;;;;;8.99;82.92;98146.50;5031137;28;20049;-67
2022/03/16 10:59:38;;;;;;;39.58;23.48;;;;;;;8.98;82.75;98142.97;5026806;28;20050;-66
2022/03/16 11:02:12;;;;;;;46.65;24.50;;;;;;;8.71;83.81;98154.00;5028494;28;20132;-65
2022/03/16 11:04:41;;;;;;;42.50;23.75;;;;;;;9.11;83.34;98150.13;5028787;28;20560;-66
2022/03/16 11:07:08;;;;;;;45.63;25.38;;;;;;;9.27;83.90;98141.66;5027325;28;20858;-65
2022/03/16 11:09:37;;;;;;;40.85;23.83;;;;;;;9.22;81.51;98142.34;5028384;28;20081;-65
2022/03/16 11:14:56;;;;;;;39.70;23.90;;;;;;;9.31;82.39;98148.25;5048542;28;20044;-65
2022/03/16 11:17:25;;;;;;;37.13;20.35;;;;;;;9.40;82.76;98151.50;5032156;28;20048;-65
2022/03/16 11:19:52;;;;;;;35.92;21.40;;;;;;;9.62;81.95;98143.75;5025791;28;20073;-66
2022/03/16 11:22:29;;;;;;;34.33;20.20;;;;;;;9.62;80.24;98149.16;5027019;28;20147;-67
2022/03/16 11:25:08;;;;;;;33.22;18.83;;;;;;;10.04;80.31;98151.13;5037734;28;20044;-65
2022/03/16 11:27:42;;;;;;;37.95;22.65;;;;;;;10.02;80.49;98153.22;5040115;28;20440;-66
2022/03/16 11:30:19;;;;;;;31.17;19.38;;;;;;;10.18;78.47;98157.19;5025068;28;20583;-68
2022/03/16 11:32:46;;;;;;;30.55;18.77;;;;;;;10.29;77.29;98155.56;5025890;28;20046;-65
2022/03/16 11:35:17;;;;;;;30.67;19.80;;;;;;;10.17;77.74;98150.09;5026467;28;20492;-65